Home > Products > Valid Products > TAF

000
FTUS44 KTSA 270213 AAA
TAFTUL
TAF AMD
KTUL 270213Z 2702/2724 17011KT P6SM SCT250
     FM270400 16011KT P6SM BKN025
     FM270900 16011KT P6SM OVC015 PROB30 2712/2718 4SM -TSRA
      OVC015CB
     FM271800 16013G23KT P6SM VCTS BKN025CB
      TEMPO 2719/2723 2SM -TSRA BKN015CB=



000
FTUS44 KTSA 270122 AAA
TAFMLC
TAF AMD
KMLC 270122Z 2701/2724 16011G20KT P6SM FEW035 SCT250
     FM270400 16011KT P6SM OVC025
     FM270900 17009KT P6SM OVC015 PROB30 2712/2718 4SM -TSRA
      OVC015CB
     FM271800 17011G18KT P6SM VCTS BKN020CB
      TEMPO 2720/2724 2SM +TSRA OVC015CB=



000
FTUS44 KTSA 262325
TAFFSM
TAF
KFSM 262325Z 2700/2724 15011KT P6SM BKN150 BKN250
     FM270200 13011KT P6SM BKN025
     FM271000 09008KT P6SM OVC015 PROB30 2712/2718 4SM -TSRA
      BKN007CB
     FM271800 15012G20KT P6SM VCTS BKN025CB
      TEMPO 2722/2724 2SM +TSRA OVC015CB=



000
FTUS44 KTSA 262325
TAFXNA
TAF
KXNA 262325Z 2700/2724 17012KT P6SM SCT040 BKN250
      TEMPO 2700/2702 16020G28KT
     FM270400 16011KT P6SM BKN020
     FM270900 17009KT P6SM OVC012
     FM271600 17011G20KT P6SM OVC020 PROB30 2716/2722 4SM -TSRA
      BKN007CB
     FM272200 16012G22KT P6SM VCTS OVC025CB
      TEMPO 2722/2724 2SM +TSRA OVC015CB=



000
FTUS44 KTSA 262325
TAFFYV
TAF
KFYV 262325Z 2700/2724 17011KT P6SM SCT040 BKN250
     FM270400 16011KT P6SM BKN020
     FM270900 17009KT P6SM OVC012
     FM271600 17011G20KT P6SM OVC020 PROB30 2716/2722 4SM -TSRA
      BKN007CB
     FM272200 16012G22KT P6SM VCTS OVC025CB
      TEMPO 2722/2724 2SM +TSRA OVC015CB=



000
FTUS44 KTSA 262325
TAFTUL
TAF
KTUL 262325Z 2700/2724 17015G25KT P6SM SCT035 SCT250
     FM270400 16011KT P6SM BKN025
     FM270900 16011KT P6SM OVC015 PROB30 2712/2718 4SM -TSRA
      OVC015CB
     FM271800 16013G23KT P6SM VCTS BKN025CB
      TEMPO 2719/2723 2SM -TSRA BKN015CB=



000
FTUS44 KTSA 262325
TAFRVS
TAF
KRVS 262325Z 2700/2724 17011G20KT P6SM SCT035 SCT250
     FM270400 16011KT P6SM BKN025
     FM270900 16009KT P6SM OVC015 PROB30 2712/2718 4SM -TSRA
      OVC015CB
     FM271800 16012G20KT P6SM VCTS BKN025CB
      TEMPO 2719/2723 2SM -TSRA BKN015CB=



000
FTUS44 KTSA 262325
TAFMLC
TAF
KMLC 262325Z 2700/2724 16011G20KT P6SM FEW035 SCT250
     FM270200 16011KT P6SM OVC025
     FM270900 17009KT P6SM OVC015 PROB30 2712/2718 4SM -TSRA
      OVC015CB
     FM271800 17011G18KT P6SM VCTS BKN020CB
      TEMPO 2720/2724 2SM +TSRA OVC015CB=



000
FTUS44 KTSA 261803 AAB
TAFFSM
TAF AMD
KFSM 261803Z 2618/2718 15005KT P6SM BKN035
     FM270000 17012KT P6SM BKN250
     FM270600 13011KT P6SM VCTS OVC015CB PROB30 2706/2712 2SM +TSRA
      BKN015CB
     FM271200 09008KT P6SM VCTS OVC007CB PROB30 2712/2718 2SM +TSRA
      BKN007CB=



000
FTUS44 KTSA 261123
TAFFSM
TAF
KFSM 261123Z 2612/2712 09006KT P6SM BKN025 WS020/18040KT
     FM261500 15008KT P6SM BKN035
     FM262000 15010G18KT P6SM VCTS BKN035CB
     FM270000 13007KT P6SM VCTS OVC050CB
     FM270800 09005KT 5SM -TSRA BKN025CB=



000
FTUS44 KTSA 261123
TAFRVS
TAF
KRVS 261123Z 2612/2712 18010KT P6SM BKN025 WS020/18040KT
     FM261500 17010G20KT P6SM BKN025
     FM261800 17012G22KT P6SM VCTS BKN035CB
     FM270000 17010G17KT P6SM VCTS BKN050CB OVC100
     FM270900 16008KT P6SM BKN025=



000
FTUS44 KTSA 261123
TAFXNA
TAF
KXNA 261123Z 2612/2712 19011KT P6SM BKN025 WS020/18040KT
     FM261500 17011KT P6SM OVC025
     FM262000 17013G21KT P6SM VCTS BKN035CB
     FM270200 17011KT P6SM VCTS OVC040CB=



000
FTUS44 KTSA 261123
TAFMLC
TAF
KMLC 261123Z 2612/2712 17010G16KT P6SM OVC015 WS020/18040KT
     FM261500 17011KT P6SM OVC025
     FM261800 17011G20KT P6SM VCTS BKN035CB
     FM270200 16010KT P6SM VCTS OVC050CB
     FM270600 16008KT 5SM -TSRA BKN025CB=



000
FTUS44 KTSA 261123
TAFTUL
TAF
KTUL 261123Z 2612/2712 17010KT P6SM BKN025 WS020/18040KT
     FM261500 17011G22KT P6SM BKN025
     FM261800 17015G25KT P6SM VCTS BKN035CB
     FM270000 17013G23KT P6SM VCTS BKN050CB OVC100
     FM270900 16010KT P6SM BKN025=



000
FTUS44 KTSA 261123
TAFFYV
TAF
KFYV 261123Z 2612/2712 19011KT P6SM BKN025 WS020/18040KT
     FM261500 17011KT P6SM OVC025
     FM262000 17013G21KT P6SM VCTS BKN035CB
     FM270200 17011KT P6SM VCTS OVC040CB=



000
FTUS44 KTSA 252320
TAFFYV
TAF
KFYV 252320Z 2600/2624 19010KT P6SM FEW026
     FM260600 18007KT 4SM BR OVC015
     FM261200 19011KT P6SM OVC015
     FM261800 17010G20KT P6SM BKN025
     FM262000 16012G20KT P6SM BKN035=



000
FTUS44 KTSA 252320
TAFTUL
TAF
KTUL 252320Z 2600/2624 19015G26KT P6SM FEW035
     FM260300 19012KT P6SM BKN250
     FM260600 17010KT P6SM OVC015
     FM261800 17011G22KT P6SM BKN025
     FM262000 16013G23KT P6SM BKN035=



000
FTUS44 KTSA 252320
TAFMLC
TAF
KMLC 252320Z 2600/2624 18007G16KT P6SM FEW030
     FM260100 16006KT P6SM OVC015
     FM260900 18008KT P6SM OVC007
     FM261500 17009KT P6SM OVC015
     FM261800 17011G20KT P6SM BKN025
     FM262000 16012G22KT P6SM BKN035=



000
FTUS44 KTSA 252320
TAFRVS
TAF
KRVS 252320Z 2600/2624 19014G22KT P6SM FEW030
     FM260300 19011KT P6SM BKN250
     FM260600 17010KT P6SM OVC015
     FM261800 17010G20KT P6SM BKN025
     FM262000 17012G22KT P6SM BKN035=



000
FTUS44 KTSA 252320
TAFFSM
TAF
KFSM 252320Z 2600/2624 20004KT P6SM FEW045
     FM260600 11004KT P6SM OVC015
     FM260900 09007KT 5SM BR OVC007
     FM261400 15008KT P6SM OVC015
     FM261800 15010G18KT P6SM BKN025
     FM262000 15012G20KT P6SM BKN035=



000
FTUS44 KTSA 252320
TAFXNA
TAF
KXNA 252320Z 2600/2624 18012G20KT P6SM BKN025
     FM260100 17008KT P6SM FEW035
     FM260600 18007KT 4SM BR OVC015
     FM261800 17010G20KT P6SM BKN025
     FM262000 16012G20KT P6SM BKN035=



000
FTUS44 KTSA 251836 AAA
TAFFSM
TAF AMD
KFSM 251836Z 2519/2618 11007KT P6SM BKN029 OVC035
     FM252100 16008KT P6SM OVC025
     FM260600 11004KT P6SM OVC015
     FM260900 09007KT 5SM BR OVC007
     FM261400 15008KT P6SM OVC015=



000
FTUS44 KTSA 251836 AAA
TAFRVS
TAF AMD
KRVS 251836Z 2519/2618 17015G21KT P6SM BKN021
     FM252100 20019G28KT P6SM SCT030
     FM260300 19012KT P6SM BKN250
     FM260600 17010KT P6SM OVC015=



000
FTUS44 KTSA 251836 AAA
TAFMLC
TAF AMD
KMLC 251836Z 2519/2618 18012G20KT P6SM BKN021
     FM252100 18009KT P6SM OVC025
     FM260300 16006KT P6SM OVC015
     FM260900 18008KT P6SM OVC007
     FM261500 17009KT P6SM OVC015=



000
FTUS44 KTSA 251627 AAD
TAFFSM
TAF AMD
KFSM 251627Z 2516/2612 05016G24KT 3SM TSRA BR SCT030CB OVC040
      TEMPO 2516/2517 5SM -TSRA BKN040CB
     FM251700 19013KT P6SM SCT040
     FM260000 20008KT P6SM BKN250
     FM260300 09005KT P6SM BKN100
     FM260900 09005KT P6SM BKN025=



000
FTUS44 KTSA 251625 AAE
TAFXNA
TAF AMD
KXNA 251625Z 2516/2612 19008KT P6SM SKC
     FM251800 18013G19KT P6SM SCT030
     FM252100 18013G19KT P6SM BKN040
     FM260200 17009KT P6SM BKN100
     FM260900 18009KT P6SM BKN025=



000
FTUS44 KTSA 251624 AAE
TAFFYV
TAF AMD
KFYV 251624Z 2516/2612 00000KT P6SM SCT030
     FM251800 18013G19KT P6SM SCT030
     FM252100 18013G19KT P6SM BKN040
     FM260200 17009KT P6SM BKN100
     FM260900 18009KT P6SM BKN025=



000
FTUS44 KTSA 251547 AAB
TAFFSM
TAF AMD
KFSM 251547Z 2516/2612 04005KT 4SM RA BKN035
      TEMPO 2516/2517 VRB15G30KT 1 1/2SM TSRA BKN025CB
     FM251700 19013KT P6SM BKN040
     FM260300 09005KT P6SM BKN100
     FM260900 09005KT P6SM BKN025=



000
FTUS44 KTSA 251544 AAD
TAFFYV
TAF AMD
KFYV 251544Z 2516/2612 16010G18KT P6SM FEW035 SCT080 BKN110
     FM252100 18013G19KT P6SM BKN040
     FM260200 17009KT P6SM BKN100
     FM260900 18009KT P6SM BKN025=



000
FTUS44 KTSA 251415 AAD
TAFTUL
TAF AMD
KTUL 251415Z 2514/2612 11015G21KT P6SM FEW012 SCT030 BKN060
     FM251600 18014G22KT P6SM SCT040
     FM260200 18013KT P6SM OVC100
     FM260800 17011KT P6SM BKN025=



000
FTUS44 KTSA 251402 AAA
TAFFSM
TAF AMD
KFSM 251402Z 2514/2612 04005KT P6SM BKN035
      TEMPO 2514/2517 VRB15G30KT 2SM TSRA BR BKN025CB
     FM252100 19013KT P6SM BKN040
     FM260300 09005KT P6SM BKN100
     FM260900 09005KT P6SM BKN025=



000
FTUS44 KTSA 251401 AAB
TAFFYV
TAF AMD
KFYV 251401Z 2514/2612 VRB03KT P6SM VCTS BKN035CB
      TEMPO 2514/2516 VRB15G40KT 1SM TSRA BR BKN015CB
     FM251600 18012KT P6SM BKN025
     FM252100 18013G19KT P6SM BKN040
     FM260200 17009KT P6SM BKN100
     FM260900 18009KT P6SM BKN025=



000
FTUS44 KTSA 251400 AAB
TAFXNA
TAF AMD
KXNA 251400Z 2514/2612 35015G30KT 2SM TSRA FEW012 BKN028CB
      TEMPO 2514/2516 1SM TSRA BR BKN012CB
     FM251600 18012KT P6SM BKN025
     FM252100 18013G19KT P6SM BKN040
     FM260200 17009KT P6SM BKN100
     FM260900 18009KT P6SM BKN025=



000
FTUS44 KTSA 251336 AAA
TAFXNA
TAF AMD
KXNA 251336Z 2514/2612 02012KT 5SM -TSRA BR BKN070CB
      TEMPO 2514/2516 2SM TSRA BR BKN025CB
     FM251600 18012KT P6SM BKN025
     FM252100 18013G19KT P6SM BKN040
     FM260200 17009KT P6SM BKN100
     FM260900 18009KT P6SM BKN025=



000
FTUS44 KTSA 251334 AAC
TAFTUL
TAF AMD
KTUL 251334Z 2514/2612 16012G19KT 5SM -TSRA SCT015CB BKN070
     FM251500 18014G22KT P6SM BKN040
     FM260200 18013KT P6SM OVC100
     FM260800 17011KT P6SM BKN025=



000
FTUS44 KTSA 251225 AAA
TAFTUL
TAF AMD
KTUL 251225Z 2512/2612 35014KT 4SM TSRA OVC015CB
     FM251300 09012KT P6SM VCTS OVC020CB
     FM251400 16012G19KT P6SM OVC025
     FM251800 18014G22KT P6SM BKN040
     FM260200 18013KT P6SM OVC100
     FM260800 17011KT P6SM BKN025=



000
FTUS44 KTSA 242320
TAFFYV
TAF
KFYV 242320Z 2500/2524 17007KT P6SM FEW030 BKN150
     FM250900 17008KT P6SM OVC020
     FM251800 18013G19KT P6SM BKN040=



000
FTUS44 KTSA 242320
TAFFSM
TAF
KFSM 242320Z 2500/2524 14005KT P6SM SCT030 BKN060
     FM250900 09004KT P6SM OVC020
     FM251800 19013KT P6SM BKN040=



000
FTUS44 KTSA 242320
TAFMLC
TAF
KMLC 242320Z 2500/2524 14007KT P6SM FEW035 OVC060
     FM250900 17010KT P6SM OVC020 PROB30 2509/2514 TS OVC020CB
     FM251400 18010G17KT P6SM OVC025
     FM252000 18010G17KT P6SM OVC040=



000
FTUS44 KTSA 242320
TAFRVS
TAF
KRVS 242320Z 2500/2524 12009KT P6SM VCTS SCT040CB BKN100
      TEMPO 2500/2503 3SM -TSRA OVC025CB
     FM250300 14010KT P6SM SCT100 BKN250
     FM250900 17007KT P6SM VCTS BKN020CB
     FM251400 18010G17KT P6SM OVC025
     FM252000 18013G19KT P6SM OVC040=



000
FTUS44 KTSA 242320
TAFXNA
TAF
KXNA 242320Z 2500/2524 14008KT P6SM FEW030 BKN150
     FM250900 17008KT P6SM OVC020
     FM251800 18013G19KT P6SM BKN040=



000
FTUS44 KTSA 242320
TAFTUL
TAF
KTUL 242320Z 2500/2524 12009KT P6SM VCTS SCT060CB BKN100
     FM250300 15010KT P6SM SCT100 BKN250
     FM250900 17007KT P6SM VCTS BKN020CB
     FM251400 18012G19KT P6SM OVC025
     FM252000 18015G22KT P6SM OVC040=



000
FTUS44 KTSA 242317 AAA
TAFRVS
TAF AMD
KRVS 242317Z 2423/2518 VRB06KT P6SM VCTS SCT040CB BKN100
      TEMPO 2423/2503 3/4SM +TSRA OVC025CB
     FM250300 14010KT P6SM SCT100 BKN250
     FM250900 17007KT P6SM VCTS BKN020CB
     FM251400 18010G17KT P6SM OVC025=



    US Dept of Commerce
    National Oceanic and Atmospheric Administration
    National Weather Service
    1325 East West Highway
    Silver Spring, MD 20910
    Page Author: NWS Internet Services Team
Disclaimer
Information Quality
Credits
Glossary
Privacy Policy
Freedom of Information Act (FOIA)
About Us
Career Opportunities